Time;durP1;ratioP1;P1;durP2;ratioP2;P2;SDS_P1;SDS_P2;PMS_P1;PMS_P2;Temp;Humidity;BMP_temperature;BMP_pressure;BME280_temperature;BME280_humidity;BME280_pressure;Samples;Min_cycle;Max_cycle;Signal;HPM_P1;HPM_P2
2022/06/15 00:00:13;;;;;;;5.27;4.93;;;;;;;11.49;100.00;97285.81;4854520;29;20297;-63
2022/06/15 00:02:43;;;;;;;5.17;4.57;;;;;;;11.51;100.00;97285.63;4849706;29;20665;-63
2022/06/15 00:05:11;;;;;;;5.43;5.03;;;;;;;11.41;100.00;97283.25;4850311;29;20245;-63
2022/06/15 00:07:40;;;;;;;5.93;5.00;;;;;;;11.39;100.00;97290.59;4840981;29;20908;-62
2022/06/15 00:10:10;;;;;;;6.20;5.70;;;;;;;11.40;100.00;97282.47;4840585;29;20209;-63
2022/06/15 00:12:39;;;;;;;6.20;5.53;;;;;;;11.32;100.00;97273.78;4836930;29;20644;-63
2022/06/15 00:15:08;;;;;;;5.43;5.07;;;;;;;11.29;100.00;97286.41;4851133;29;20843;-62
2022/06/15 00:17:37;;;;;;;5.60;5.20;;;;;;;11.31;100.00;97285.41;4855739;29;20269;-62
2022/06/15 00:20:08;;;;;;;5.93;5.43;;;;;;;11.43;100.00;97284.72;4854025;29;20285;-62
2022/06/15 00:22:36;;;;;;;6.73;5.20;;;;;;;11.37;100.00;97282.00;4855273;29;20422;-63
2022/06/15 00:25:05;;;;;;;6.30;5.70;;;;;;;11.23;100.00;97287.16;4823438;29;20296;-64
2022/06/15 00:27:34;;;;;;;6.37;5.87;;;;;;;11.15;100.00;97280.13;4856145;29;20213;-61
2022/06/15 00:30:03;;;;;;;5.37;4.97;;;;;;;11.18;100.00;97278.94;4838764;29;20255;-63
2022/06/15 00:32:31;;;;;;;5.30;4.90;;;;;;;11.16;100.00;97286.22;4856221;29;20229;-59
2022/06/15 00:35:00;;;;;;;5.33;5.00;;;;;;;11.05;100.00;97278.75;4854053;29;20223;-60
2022/06/15 00:37:29;;;;;;;6.00;5.50;;;;;;;11.05;100.00;97281.41;4854176;29;20253;-62
2022/06/15 00:39:57;;;;;;;6.00;5.50;;;;;;;11.01;100.00;97283.63;4817440;29;21237;-63
2022/06/15 00:42:31;;;;;;;6.27;5.83;;;;;;;10.97;100.00;97284.97;4850118;29;20281;-63
2022/06/15 00:44:59;;;;;;;7.30;6.27;;;;;;;11.03;100.00;97283.41;4836764;29;22063;-63
2022/06/15 00:47:30;;;;;;;6.60;6.10;;;;;;;10.92;100.00;97282.06;4858831;29;20743;-59
2022/06/15 00:50:02;;;;;;;5.60;5.30;;;;;;;10.90;100.00;97286.72;4846999;29;20304;-64
2022/06/15 00:52:34;;;;;;;5.83;5.43;;;;;;;10.84;100.00;97283.00;4853714;29;20278;-64
2022/06/15 00:55:05;;;;;;;6.40;5.80;;;;;;;10.77;100.00;97276.75;4847140;29;20217;-63
2022/06/15 00:57:34;;;;;;;6.40;5.90;;;;;;;10.70;100.00;97285.44;4814705;29;20345;-62
2022/06/15 01:00:07;;;;;;;5.63;5.23;;;;;;;10.64;100.00;97283.53;4829053;29;20328;-62
2022/06/15 01:02:37;;;;;;;5.93;5.53;;;;;;;10.64;100.00;97272.91;4853538;29;20961;-60
2022/06/15 01:05:07;;;;;;;5.70;5.40;;;;;;;10.53;100.00;97271.53;4852886;29;20931;-63
2022/06/15 01:07:48;;;;;;;6.23;5.73;;;;;;;10.44;100.00;97275.28;4855095;29;20270;-63
2022/06/15 01:10:25;;;;;;;5.80;5.40;;;;;;;10.53;100.00;97276.84;4853856;29;20276;-60
2022/06/15 01:13:04;;;;;;;6.77;6.17;;;;;;;10.68;100.00;97270.75;4815590;29;20287;-63
2022/06/15 01:15:41;;;;;;;6.77;6.17;;;;;;;10.75;100.00;97266.34;4834087;29;21242;-62
2022/06/15 01:18:21;;;;;;;6.20;5.80;;;;;;;10.57;100.00;97272.81;4856102;29;20927;-63
2022/06/15 01:21:08;;;;;;;6.63;6.03;;;;;;;10.46;100.00;97277.75;4853514;29;20237;-63
2022/06/15 01:24:09;;;;;;;6.17;5.67;;;;;;;10.38;100.00;97271.47;4854527;29;20229;-60
2022/06/15 01:26:58;;;;;;;6.20;5.73;;;;;;;10.26;100.00;97270.28;4840074;29;20241;-65
2022/06/15 01:29:42;;;;;;;5.60;5.23;;;;;;;10.19;100.00;97272.00;4851544;29;22048;-63
2022/06/15 01:32:15;;;;;;;5.80;5.20;;;;;;;10.14;100.00;97270.72;4834249;29;20517;-63
2022/06/15 01:34:48;;;;;;;5.93;5.43;;;;;;;10.14;100.00;97262.78;4851851;29;20237;-62
2022/06/15 01:37:33;;;;;;;6.00;5.50;;;;;;;10.20;100.00;97266.53;4853561;29;20746;-61
2022/06/15 01:40:05;;;;;;;5.87;5.47;;;;;;;10.24;100.00;97262.53;4856113;29;21269;-63
2022/06/15 01:42:36;;;;;;;6.07;5.67;;;;;;;10.40;100.00;97271.34;4818872;29;20298;-64
2022/06/15 01:45:07;;;;;;;6.23;5.73;;;;;;;10.41;100.00;97262.41;4854044;29;20990;-63
2022/06/15 01:47:38;;;;;;;6.97;6.43;;;;;;;10.32;100.00;97274.84;4834797;29;20297;-63
2022/06/15 01:50:11;;;;;;;6.77;6.00;;;;;;;10.30;100.00;97270.75;4848463;29;20904;-63
2022/06/15 01:52:42;;;;;;;6.10;5.43;;;;;;;10.17;100.00;97264.22;4855714;29;20225;-62
2022/06/15 01:55:15;;;;;;;7.27;6.67;;;;;;;10.18;100.00;97263.22;4852505;29;20225;-62
2022/06/15 01:57:47;;;;;;;6.47;5.97;;;;;;;10.10;100.00;97264.16;4817367;29;20214;-62
2022/06/15 02:00:17;;;;;;;7.13;6.43;;;;;;;10.03;100.00;97272.97;4850605;29;20672;-58
2022/06/15 02:02:54;;;;;;;6.97;6.37;;;;;;;10.05;100.00;97266.50;4836948;29;20229;-63
2022/06/15 02:09:10;;;;;;;5.63;5.23;;;;;;;10.04;100.00;97271.97;4790211;29;20713;-62
2022/06/15 02:11:40;;;;;;;7.00;6.40;;;;;;;10.05;100.00;97266.50;4798728;29;20219;-62
2022/06/15 02:14:13;;;;;;;6.87;6.37;;;;;;;10.09;100.00;97269.59;4763579;29;20239;-64
2022/06/15 02:16:44;;;;;;;7.17;6.53;;;;;;;10.11;100.00;97267.59;4797189;29;20216;-63
2022/06/15 02:19:17;;;;;;;6.60;6.17;;;;;;;10.05;100.00;97269.16;4776128;29;20215;-63
2022/06/15 02:21:50;;;;;;;7.30;6.47;;;;;;;10.02;100.00;97266.84;4796896;29;20215;-62
2022/06/15 02:24:21;;;;;;;9.50;6.47;;;;;;;9.90;100.00;97268.28;4798266;29;20748;-62
2022/06/15 02:26:49;;;;;;;7.20;6.60;;;;;;;9.80;100.00;97277.28;4833343;29;20240;-56
2022/06/15 02:29:24;;;;;;;6.97;6.27;;;;;;;9.87;100.00;97274.75;4816848;29;20336;-58
2022/06/15 02:31:55;;;;;;;7.13;6.57;;;;;;;9.80;100.00;97271.16;4849272;29;20210;-64
2022/06/15 02:34:26;;;;;;;7.40;6.70;;;;;;;9.77;100.00;97271.50;4828006;29;20234;-62
2022/06/15 02:36:54;;;;;;;7.57;6.97;;;;;;;9.65;100.00;97273.72;4852037;29;20209;-61
2022/06/15 02:39:23;;;;;;;6.63;6.13;;;;;;;9.64;100.00;97280.03;4848752;29;20209;-63
2022/06/15 02:41:58;;;;;;;6.37;5.97;;;;;;;9.57;100.00;97269.34;4849288;29;20878;-62
2022/06/15 02:44:27;;;;;;;6.53;5.93;;;;;;;9.50;100.00;97274.50;4811629;29;20234;-61
2022/06/15 02:46:56;;;;;;;7.37;6.60;;;;;;;9.53;100.00;97271.50;4846710;29;20224;-61
2022/06/15 02:49:26;;;;;;;6.57;6.17;;;;;;;9.57;100.00;97271.97;4851071;29;20213;-63
2022/06/15 02:51:58;;;;;;;7.47;6.90;;;;;;;9.49;100.00;97272.03;4825376;29;20242;-64
2022/06/15 02:54:38;;;;;;;7.20;6.60;;;;;;;9.57;100.00;97269.34;4852045;29;20234;-59
2022/06/15 02:57:06;;;;;;;7.33;6.80;;;;;;;9.50;100.00;97271.03;4850672;29;20209;-62
2022/06/15 02:59:35;;;;;;;7.37;6.77;;;;;;;9.49;100.00;97266.75;4814334;29;20215;-62
2022/06/15 03:02:05;;;;;;;7.10;6.60;;;;;;;9.36;100.00;97265.47;4848207;29;20296;-63
2022/06/15 03:04:35;;;;;;;7.63;7.03;;;;;;;9.34;100.00;97259.53;4845911;29;20245;-63
2022/06/15 03:07:04;;;;;;;6.70;6.20;;;;;;;9.31;100.00;97257.25;4838958;29;20217;-63
2022/06/15 03:09:33;;;;;;;7.23;6.63;;;;;;;9.31;100.00;97257.25;4859249;29;20213;-60
2022/06/15 03:12:07;;;;;;;7.00;6.47;;;;;;;9.26;100.00;97255.13;4854274;29;20226;-57
2022/06/15 03:14:35;;;;;;;7.57;6.97;;;;;;;9.49;100.00;97269.41;4796724;29;20241;-58
2022/06/15 03:17:04;;;;;;;7.37;6.43;;;;;;;9.59;100.00;97269.16;4853109;29;20590;-62
2022/06/15 03:19:34;;;;;;;7.03;6.53;;;;;;;9.44;100.00;97261.13;4853831;29;20986;-61
2022/06/15 03:22:03;;;;;;;8.07;7.33;;;;;;;9.51;100.00;97276.16;4829294;29;20634;-62
2022/06/15 03:24:32;;;;;;;7.60;6.90;;;;;;;9.61;100.00;97273.28;4852910;29;20238;-62
2022/06/15 03:27:00;;;;;;;6.30;5.83;;;;;;;9.65;100.00;97265.78;4854986;29;20221;-62
2022/06/15 03:29:30;;;;;;;7.27;6.77;;;;;;;9.72;100.00;97263.28;4819848;29;20528;-61
2022/06/15 03:31:59;;;;;;;6.77;6.17;;;;;;;9.61;100.00;97261.84;4850851;29;20217;-62
2022/06/15 03:34:27;;;;;;;9.47;7.47;;;;;;;9.59;100.00;97264.69;4852115;29;20777;-62
2022/06/15 03:36:57;;;;;;;8.20;7.40;;;;;;;9.53;100.00;97258.28;4833526;29;20206;-63
2022/06/15 03:39:25;;;;;;;7.40;6.70;;;;;;;9.61;100.00;97257.41;4853240;29;20304;-62
2022/06/15 03:41:53;;;;;;;6.93;6.43;;;;;;;9.58;100.00;97264.84;4855506;29;20269;-61
2022/06/15 03:44:22;;;;;;;6.57;6.17;;;;;;;9.58;100.00;97260.41;4841711;29;20937;-59
2022/06/15 03:46:50;;;;;;;7.00;6.60;;;;;;;9.69;100.00;97267.91;4840107;29;20198;-64
2022/06/15 03:49:19;;;;;;;6.60;6.03;;;;;;;9.92;100.00;97272.41;4856342;29;20754;-61
2022/06/15 03:51:47;;;;;;;6.80;6.20;;;;;;;9.85;100.00;97274.91;4830882;29;20314;-64
2022/06/15 03:54:16;;;;;;;7.10;6.53;;;;;;;9.91;100.00;97265.47;4852968;29;20237;-63
2022/06/15 03:56:47;;;;;;;8.27;7.03;;;;;;;9.98;100.00;97271.69;4854688;29;20274;-64
2022/06/15 03:59:17;;;;;;;6.77;6.17;;;;;;;10.01;100.00;97272.31;4851674;29;20230;-63
2022/06/15 04:01:45;;;;;;;7.27;6.77;;;;;;;10.09;100.00;97262.50;4828095;29;20338;-61
2022/06/15 04:04:13;;;;;;;6.97;6.37;;;;;;;10.20;100.00;97271.00;4854310;29;20226;-62
2022/06/15 04:06:44;;;;;;;8.10;7.40;;;;;;;10.31;100.00;97262.63;4852720;29;20217;-62
2022/06/15 04:09:11;;;;;;;6.93;6.43;;;;;;;10.30;100.00;97263.63;4829885;29;20301;-62
2022/06/15 04:14:27;;;;;;;5.70;5.20;;;;;;;10.37;100.00;97261.88;4826695;29;20237;-64
2022/06/15 04:16:56;;;;;;;6.77;6.27;;;;;;;10.50;100.00;97256.00;4847552;29;20214;-63
2022/06/15 04:19:27;;;;;;;6.77;6.27;;;;;;;10.66;100.00;97249.72;4853025;29;20205;-62
2022/06/15 04:21:55;;;;;;;7.40;6.70;;;;;;;10.71;100.00;97252.63;4851176;29;20233;-63
2022/06/15 04:24:26;;;;;;;6.70;6.20;;;;;;;10.77;100.00;97258.19;4825756;29;20289;-62
2022/06/15 04:26:57;;;;;;;6.87;6.27;;;;;;;10.86;100.00;97257.94;4855117;29;20218;-63
2022/06/15 04:29:26;;;;;;;5.80;5.40;;;;;;;11.07;100.00;97248.41;4851340;29;20316;-62
2022/06/15 04:31:54;;;;;;;6.03;5.63;;;;;;;11.20;100.00;97255.72;4813744;29;20218;-60
2022/06/15 04:34:23;;;;;;;6.20;5.73;;;;;;;11.31;100.00;97253.56;4852603;29;20229;-59
2022/06/15 04:36:51;;;;;;;6.40;5.90;;;;;;;11.42;100.00;97245.94;4855853;29;20452;-62
2022/06/15 04:39:19;;;;;;;5.70;5.33;;;;;;;11.48;100.00;97256.81;4829479;29;20353;-62
2022/06/15 04:41:47;;;;;;;6.37;5.77;;;;;;;11.64;100.00;97255.75;4854848;29;20210;-63
2022/06/15 04:44:16;;;;;;;6.13;5.57;;;;;;;11.58;100.00;97263.47;4851843;29;20271;-61
2022/06/15 04:46:45;;;;;;;6.50;5.93;;;;;;;11.89;100.00;97256.19;4791420;29;20893;-64
2022/06/15 04:49:13;;;;;;;6.20;5.40;;;;;;;11.95;100.00;97257.28;4850116;29;20294;-59
2022/06/15 04:51:42;;;;;;;5.77;5.37;;;;;;;12.04;100.00;97257.97;4849483;29;21008;-62
2022/06/15 04:54:10;;;;;;;5.70;5.30;;;;;;;12.18;100.00;97265.06;4809584;29;20320;-62
2022/06/15 04:56:39;;;;;;;5.17;4.77;;;;;;;12.26;100.00;97270.22;4853175;29;20194;-59
2022/06/15 04:59:07;;;;;;;6.87;6.27;;;;;;;12.41;100.00;97275.44;4827939;29;20297;-63
2022/06/15 05:01:37;;;;;;;5.87;5.30;;;;;;;12.43;100.00;97272.56;4820662;29;20229;-62
2022/06/15 05:04:06;;;;;;;6.03;5.63;;;;;;;12.51;100.00;97271.63;4853057;29;20233;-63
2022/06/15 05:06:36;;;;;;;5.00;4.70;;;;;;;12.42;100.00;97279.75;4832570;29;20899;-62
2022/06/15 05:09:05;;;;;;;4.80;4.50;;;;;;;12.50;100.00;97276.13;4854193;29;20767;-63
2022/06/15 05:11:33;;;;;;;5.30;4.90;;;;;;;12.55;100.00;97278.19;4826314;29;20217;-59
2022/06/15 05:14:02;;;;;;;5.67;5.20;;;;;;;12.58;100.00;97275.97;4853985;29;20229;-64
2022/06/15 05:16:31;;;;;;;4.77;4.37;;;;;;;12.63;100.00;97282.53;4826121;29;20309;-63
2022/06/15 05:19:01;;;;;;;5.10;4.63;;;;;;;12.85;100.00;97280.63;4814823;29;20257;-65
2022/06/15 05:21:29;;;;;;;6.63;4.80;;;;;;;12.86;100.00;97280.41;4850501;29;20910;-64
2022/06/15 05:23:58;;;;;;;5.03;4.60;;;;;;;13.15;100.00;97272.38;4852241;29;20270;-62
2022/06/15 05:26:26;;;;;;;5.80;4.70;;;;;;;13.43;100.00;97276.78;4829503;29;20734;-62
2022/06/15 05:28:54;;;;;;;6.33;4.60;;;;;;;13.69;100.00;97275.25;4854177;29;20214;-64
2022/06/15 05:31:23;;;;;;;4.57;4.27;;;;;;;13.98;100.00;97281.22;4848664;29;21049;-63
2022/06/15 05:33:54;;;;;;;5.03;4.63;;;;;;;14.10;100.00;97278.78;4814763;29;20241;-62
2022/06/15 05:36:26;;;;;;;4.83;4.53;;;;;;;14.17;100.00;97280.41;4848069;29;20833;-63
2022/06/15 05:38:54;;;;;;;4.53;4.23;;;;;;;14.30;100.00;97279.59;4850610;29;20318;-64
2022/06/15 05:41:23;;;;;;;5.50;4.03;;;;;;;14.50;100.00;97286.78;4832141;29;20289;-63
2022/06/15 05:43:58;;;;;;;7.87;4.60;;;;;;;14.68;100.00;97286.13;4849708;29;20240;-65
2022/06/15 05:46:28;;;;;;;4.20;3.90;;;;;;;14.81;100.00;97285.31;4849706;29;20241;-61
2022/06/15 05:48:56;;;;;;;4.27;4.07;;;;;;;14.95;100.00;97287.94;4819716;29;20938;-65
2022/06/15 05:51:26;;;;;;;4.00;3.70;;;;;;;15.03;100.00;97277.03;4848740;29;20277;-63
2022/06/15 05:53:54;;;;;;;4.10;3.90;;;;;;;15.33;100.00;97276.53;4852542;29;20272;-64
2022/06/15 05:56:23;;;;;;;4.27;3.97;;;;;;;15.51;100.00;97277.66;4832393;29;20250;-63
2022/06/15 05:58:52;;;;;;;6.20;4.17;;;;;;;15.69;100.00;97268.94;4853784;29;20290;-62
2022/06/15 06:01:25;;;;;;;4.40;4.10;;;;;;;15.96;100.00;97283.00;4848019;29;20320;-64
2022/06/15 06:03:53;;;;;;;4.40;4.00;;;;;;;16.09;100.00;97274.03;4812684;29;20306;-63
2022/06/15 06:06:22;;;;;;;4.10;3.70;;;;;;;16.17;100.00;97265.78;4848159;29;20230;-63
2022/06/15 06:08:51;;;;;;;4.20;3.90;;;;;;;16.29;100.00;97262.38;4854934;29;20241;-62
2022/06/15 06:11:21;;;;;;;4.30;4.00;;;;;;;16.43;100.00;97263.09;4853086;29;20276;-62
2022/06/15 06:13:50;;;;;;;4.50;4.10;;;;;;;16.67;100.00;97256.06;4830945;29;20231;-65
2022/06/15 06:16:20;;;;;;;4.27;3.97;;;;;;;16.93;100.00;97257.63;4855295;29;20218;-63
2022/06/15 06:18:50;;;;;;;6.30;4.27;;;;;;;16.91;100.00;97256.25;4851212;29;20294;-63
2022/06/15 06:21:18;;;;;;;3.80;3.30;;;;;;;17.15;100.00;97259.06;4820527;29;20286;-65
2022/06/15 06:23:46;;;;;;;4.20;4.00;;;;;;;17.38;100.00;97271.75;4851726;29;20231;-64
2022/06/15 06:26:20;;;;;;;4.27;4.07;;;;;;;17.55;100.00;97279.19;4854241;29;20889;-63
2022/06/15 06:28:48;;;;;;;4.30;4.00;;;;;;;17.70;100.00;97284.94;4832980;29;20213;-65
2022/06/15 06:31:19;;;;;;;3.87;3.67;;;;;;;17.81;100.00;97283.34;4854656;29;20217;-64
2022/06/15 06:33:49;;;;;;;4.03;3.73;;;;;;;17.92;100.00;97287.13;4850919;29;20920;-65
2022/06/15 06:36:19;;;;;;;3.80;3.63;;;;;;;18.05;100.00;97278.91;4819743;29;20229;-64
2022/06/15 06:38:47;;;;;;;4.37;3.97;;;;;;;18.09;100.00;97284.63;4851126;29;20269;-64
2022/06/15 06:41:20;;;;;;;4.87;4.30;;;;;;;18.05;100.00;97280.78;4852293;29;20214;-62
2022/06/15 06:43:48;;;;;;;5.73;4.57;;;;;;;18.25;100.00;97285.81;4835523;29;20233;-64
2022/06/15 06:46:17;;;;;;;6.27;3.60;;;;;;;18.25;100.00;97288.50;4860787;29;20339;-64
2022/06/15 06:48:46;;;;;;;4.13;3.83;;;;;;;18.36;100.00;97285.00;4852759;29;20206;-64
2022/06/15 06:51:14;;;;;;;5.13;4.43;;;;;;;18.54;100.00;97290.50;4821610;29;20218;-66
2022/06/15 06:53:42;;;;;;;9.30;4.20;;;;;;;18.54;100.00;97285.16;4853046;29;20221;-64
2022/06/15 06:56:12;;;;;;;4.57;4.27;;;;;;;18.52;100.00;97291.56;4858756;29;20210;-63
2022/06/15 06:58:41;;;;;;;4.90;4.40;;;;;;;18.83;100.00;97291.44;4833876;29;20293;-62
2022/06/15 07:01:09;;;;;;;4.87;4.40;;;;;;;18.76;100.00;97294.25;4856260;29;20976;-63
2022/06/15 07:03:38;;;;;;;4.40;4.07;;;;;;;18.75;100.00;97291.78;4850124;29;20234;-66
2022/06/15 07:06:09;;;;;;;4.20;3.30;;;;;;;18.96;100.00;97290.38;4854786;29;20650;-64
2022/06/15 07:08:38;;;;;;;4.37;3.97;;;;;;;19.17;100.00;97291.66;4814740;29;20296;-66
2022/06/15 07:11:10;;;;;;;4.73;4.33;;;;;;;19.13;100.00;97286.97;4857534;29;20221;-65
2022/06/15 07:13:38;;;;;;;6.30;4.00;;;;;;;19.37;100.00;97291.25;4842510;29;20232;-64
2022/06/15 07:16:10;;;;;;;4.23;3.77;;;;;;;19.38;100.00;97284.03;4858470;29;20277;-64
2022/06/15 07:18:38;;;;;;;4.67;3.80;;;;;;;19.41;100.00;97290.78;4850768;29;20397;-62
2022/06/15 07:21:12;;;;;;;4.50;4.20;;;;;;;19.33;100.00;97282.03;4854238;29;20217;-62
2022/06/15 07:23:41;;;;;;;4.50;3.87;;;;;;;19.62;100.00;97282.06;4818191;29;20649;-60
2022/06/15 07:26:11;;;;;;;4.20;4.00;;;;;;;19.81;100.00;97281.84;4851513;29;20322;-61
2022/06/15 07:28:40;;;;;;;4.10;3.80;;;;;;;20.08;100.00;97278.59;4834805;29;20216;-61
2022/06/15 07:31:22;;;;;;;4.10;3.80;;;;;;;19.98;100.00;97278.41;4859002;29;20257;-58
2022/06/15 07:33:50;;;;;;;4.20;3.60;;;;;;;20.16;100.00;97272.78;4856996;29;20238;-62
2022/06/15 07:36:20;;;;;;;5.27;4.30;;;;;;;20.49;99.17;97273.84;4852397;29;20274;-62
2022/06/15 07:38:48;;;;;;;3.50;3.20;;;;;;;20.42;96.81;97275.91;4823095;29;22358;-65
2022/06/15 07:41:16;;;;;;;5.87;3.87;;;;;;;20.61;87.14;97272.94;4853110;29;20710;-61
2022/06/15 07:43:44;;;;;;;5.10;3.97;;;;;;;20.62;82.15;97266.50;4850125;29;20321;-60
2022/06/15 07:46:13;;;;;;;5.53;3.37;;;;;;;20.93;91.11;97264.25;4834641;29;20282;-65
2022/06/15 07:51:32;;;;;;;5.33;3.00;;;;;;;21.18;75.53;97265.66;4856724;29;20209;-63
2022/06/15 07:54:01;;;;;;;4.30;3.30;;;;;;;21.30;80.57;97265.53;4853750;29;20238;-62
2022/06/15 07:56:29;;;;;;;3.87;3.53;;;;;;;21.55;79.39;97267.72;4820678;29;20305;-62
2022/06/15 07:58:58;;;;;;;3.97;3.20;;;;;;;21.69;76.44;97268.16;4853656;29;20733;-63
2022/06/15 08:01:27;;;;;;;4.47;3.97;;;;;;;21.57;68.02;97265.56;4834170;29;20245;-63
2022/06/15 08:03:56;;;;;;;3.60;3.40;;;;;;;21.30;75.40;97262.84;4857004;29;20229;-63
2022/06/15 08:06:26;;;;;;;3.37;3.17;;;;;;;21.30;77.00;97258.25;4855891;29;20224;-62
2022/06/15 08:08:54;;;;;;;3.33;3.00;;;;;;;21.59;70.70;97259.91;4853329;29;20210;-66
2022/06/15 08:11:22;;;;;;;4.77;3.53;;;;;;;21.71;64.53;97251.72;4813810;29;20241;-63
2022/06/15 08:13:50;;;;;;;4.90;3.27;;;;;;;21.58;66.34;97263.69;4851878;29;22112;-63
2022/06/15 08:16:19;;;;;;;3.50;3.20;;;;;;;21.63;68.32;97250.28;4837089;29;20322;-62
2022/06/15 08:18:51;;;;;;;7.37;3.60;;;;;;;21.85;70.20;97252.94;4853999;29;20249;-63
2022/06/15 08:21:24;;;;;;;5.73;3.43;;;;;;;21.97;70.91;97250.06;4856413;29;20230;-65
2022/06/15 08:23:54;;;;;;;5.50;3.57;;;;;;;22.02;70.10;97246.59;4853877;29;20314;-64
2022/06/15 08:26:24;;;;;;;3.33;3.07;;;;;;;22.11;70.50;97242.34;4814022;29;20258;-64
2022/06/15 08:28:56;;;;;;;4.60;3.50;;;;;;;22.07;67.16;97235.84;4853094;29;20661;-63
2022/06/15 08:31:24;;;;;;;3.97;3.57;;;;;;;22.12;69.01;97239.41;4833575;29;20282;-64
2022/06/15 08:33:52;;;;;;;4.27;3.30;;;;;;;22.38;65.40;97241.50;4851622;29;20365;-62
2022/06/15 08:36:22;;;;;;;3.17;2.87;;;;;;;22.61;64.54;97244.91;4856132;29;20222;-65
2022/06/15 08:38:51;;;;;;;3.13;2.87;;;;;;;22.90;62.87;97241.81;4849480;29;20237;-61
2022/06/15 08:41:23;;;;;;;3.27;3.07;;;;;;;23.10;59.95;97243.78;4820520;29;20316;-63
2022/06/15 08:44:02;;;;;;;4.97;3.07;;;;;;;23.03;59.36;97249.47;4849593;29;20287;-63
2022/06/15 08:46:39;;;;;;;3.37;3.17;;;;;;;23.04;55.57;97242.97;4844229;29;20792;-63
2022/06/15 08:49:19;;;;;;;3.53;2.77;;;;;;;23.11;56.09;97251.66;4852834;29;20238;-60
2022/06/15 08:51:51;;;;;;;3.57;2.83;;;;;;;22.96;56.26;97243.50;4849220;29;20213;-65
2022/06/15 08:54:22;;;;;;;2.93;2.73;;;;;;;23.03;51.83;97237.81;4856243;29;20584;-61
2022/06/15 08:56:53;;;;;;;3.10;2.90;;;;;;;23.09;48.03;97243.00;4813895;29;20225;-62
2022/06/15 08:59:29;;;;;;;4.50;3.10;;;;;;;23.02;53.18;97234.31;4854212;29;20213;-63
2022/06/15 09:02:02;;;;;;;3.77;2.63;;;;;;;23.18;49.30;97234.38;4850028;29;20202;-63
2022/06/15 09:04:35;;;;;;;3.23;3.03;;;;;;;23.16;48.05;97231.13;4834675;29;20351;-64
2022/06/15 09:07:16;;;;;;;3.00;2.80;;;;;;;23.20;49.56;97233.06;4854601;29;20264;-64
2022/06/15 09:10:03;;;;;;;2.73;2.53;;;;;;;23.08;45.26;97237.84;4847739;29;20975;-62
2022/06/15 09:12:58;;;;;;;2.60;2.40;;;;;;;23.32;49.71;97235.56;4813099;29;20328;-63
2022/06/15 09:15:43;;;;;;;2.40;2.20;;;;;;;23.39;46.55;97230.72;4853000;29;20198;-63
2022/06/15 09:18:16;;;;;;;2.27;2.17;;;;;;;23.34;46.04;97236.09;4834270;29;20229;-62
2022/06/15 09:20:50;;;;;;;2.97;2.77;;;;;;;23.37;44.79;97232.88;4850193;29;20308;-65
2022/06/15 09:23:22;;;;;;;2.63;2.23;;;;;;;23.21;44.29;97231.16;4853955;29;20238;-63
2022/06/15 09:25:54;;;;;;;2.43;2.30;;;;;;;23.03;43.53;97230.56;4854893;29;20278;-62
2022/06/15 09:28:28;;;;;;;2.60;2.40;;;;;;;23.24;44.77;97230.59;4815982;29;20233;-63
2022/06/15 09:31:00;;;;;;;2.73;2.37;;;;;;;23.51;45.70;97227.78;4852386;29;20271;-64
2022/06/15 09:33:32;;;;;;;3.47;2.60;;;;;;;23.56;44.40;97224.25;4833737;29;20281;-60
2022/06/15 09:36:07;;;;;;;7.30;2.87;;;;;;;23.80;44.62;97229.16;4855250;29;20224;-64
2022/06/15 09:38:38;;;;;;;3.07;2.67;;;;;;;23.96;43.40;97228.06;4850196;29;20249;-63
2022/06/15 09:41:11;;;;;;;2.70;2.50;;;;;;;23.96;42.76;97219.16;4853027;29;20284;-64
2022/06/15 09:43:46;;;;;;;3.43;2.87;;;;;;;24.03;45.63;97230.56;4813119;29;20237;-64
2022/06/15 09:46:20;;;;;;;3.03;2.70;;;;;;;24.12;43.70;97225.41;4856010;29;21319;-64
2022/06/15 09:48:59;;;;;;;3.47;2.67;;;;;;;23.90;45.34;97223.75;4834191;29;20237;-64
2022/06/15 09:51:35;;;;;;;2.77;2.50;;;;;;;24.00;44.58;97212.13;4850411;29;20928;-64
2022/06/15 09:54:09;;;;;;;2.37;2.17;;;;;;;24.36;44.95;97219.44;4851871;29;21236;-62
2022/06/15 09:56:38;;;;;;;2.77;2.53;;;;;;;24.21;43.41;97220.25;4850839;29;20240;-63
2022/06/15 09:59:08;;;;;;;2.67;2.47;;;;;;;24.40;43.19;97221.31;4814878;29;20847;-63
2022/06/15 10:01:40;;;;;;;3.67;2.30;;;;;;;24.28;41.91;97218.91;4850773;29;20268;-63
2022/06/15 10:04:15;;;;;;;2.30;2.20;;;;;;;24.46;40.85;97216.72;4829578;29;20238;-62
2022/06/15 10:07:06;;;;;;;3.23;2.93;;;;;;;24.46;47.23;97208.59;4846883;29;20330;-64
2022/06/15 10:09:38;;;;;;;4.13;2.70;;;;;;;24.35;44.99;97215.91;4848340;29;20726;-64
2022/06/15 10:15:16;;;;;;;2.83;2.43;;;;;;;24.39;46.82;97208.88;4853656;29;20228;-63
2022/06/15 10:17:48;;;;;;;2.67;2.47;;;;;;;24.31;44.84;97206.72;4851075;29;21055;-62
2022/06/15 10:20:26;;;;;;;2.60;2.40;;;;;;;24.42;46.91;97205.63;4832858;29;20249;-63
2022/06/15 10:22:56;;;;;;;2.33;2.23;;;;;;;24.45;43.43;97204.28;4846618;29;20217;-64
2022/06/15 10:25:34;;;;;;;2.73;2.53;;;;;;;24.76;43.65;97211.53;4852700;29;20281;-63
2022/06/15 10:28:13;;;;;;;2.40;2.30;;;;;;;24.78;41.07;97199.31;4855435;29;20229;-63
2022/06/15 10:30:52;;;;;;;2.77;2.27;;;;;;;24.96;42.05;97195.19;4813495;29;20321;-65
2022/06/15 10:33:20;;;;;;;1.93;1.83;;;;;;;25.05;40.15;97192.72;4851251;29;20239;-65
2022/06/15 10:35:51;;;;;;;3.10;2.80;;;;;;;25.19;40.28;97201.06;4834595;29;20301;-63
2022/06/15 10:38:19;;;;;;;2.37;2.17;;;;;;;25.15;38.16;97195.38;4854585;29;20221;-63
2022/06/15 10:41:45;;;;;;;2.30;2.20;;;;;;;25.07;38.98;97189.75;4849944;29;20459;-64
2022/06/15 10:43:47;;;;;;;2.07;1.97;;;;;;;25.21;38.09;97195.38;4853804;29;21004;-64
2022/06/15 10:46:17;;;;;;;3.67;2.10;;;;;;;25.08;37.52;97194.88;4820777;29;20273;-64
2022/06/15 10:48:47;;;;;;;6.83;2.30;;;;;;;25.11;37.01;97190.81;4845805;29;20280;-66
2022/06/15 10:51:17;;;;;;;4.07;2.47;;;;;;;25.16;38.58;97190.78;4834552;29;20293;-61
2022/06/15 10:53:47;;;;;;;3.03;2.20;;;;;;;24.98;36.68;97186.78;4847852;29;20265;-63
2022/06/15 11:02:29;;;;;;;1.70;1.60;;;;;;;25.24;39.91;97179.34;4818087;29;20219;-63
2022/06/15 11:05:00;;;;;;;2.63;1.77;;;;;;;25.32;37.03;97186.09;4846245;29;20245;-63
2022/06/15 11:07:32;;;;;;;1.90;1.80;;;;;;;25.28;36.79;97185.03;4833737;29;20226;-62
2022/06/15 11:10:13;;;;;;;1.77;1.67;;;;;;;25.05;34.90;97172.94;4850101;29;20898;-63
2022/06/15 11:12:47;;;;;;;4.20;1.70;;;;;;;25.43;34.44;97176.78;4848140;29;20229;-62
2022/06/15 11:18:27;;;;;;;1.70;1.60;;;;;;;25.60;33.88;97166.66;4848946;29;20702;-64
2022/06/15 11:21:00;;;;;;;1.63;1.50;;;;;;;25.64;34.33;97168.56;4850077;29;20206;-64
2022/06/15 11:23:32;;;;;;;2.50;1.70;;;;;;;25.74;34.76;97161.41;4830636;29;20242;-62
2022/06/15 11:26:51;;;;;;;3.43;1.77;;;;;;;25.82;33.68;97152.66;4850830;29;20331;-64
2022/06/15 11:28:55;;;;;;;1.60;1.50;;;;;;;25.92;35.23;97149.06;4850539;29;20238;-66
2022/06/15 11:31:43;;;;;;;1.47;1.33;;;;;;;25.86;33.90;97151.00;4822898;29;21809;-63
2022/06/15 11:34:16;;;;;;;1.53;1.43;;;;;;;26.04;33.63;97156.84;4857113;29;20290;-64
2022/06/15 11:36:50;;;;;;;1.00;1.00;;;;;;;26.23;34.75;97152.31;4854642;29;20202;-65
2022/06/15 11:39:22;;;;;;;1.30;1.30;;;;;;;26.33;33.24;97153.31;4834874;29;20230;-66
2022/06/15 11:41:52;;;;;;;1.57;1.47;;;;;;;26.28;34.04;97156.91;4852934;29;20264;-62
2022/06/15 11:44:24;;;;;;;1.13;1.13;;;;;;;26.47;30.71;97156.16;4859151;29;20268;-63
2022/06/15 11:47:07;;;;;;;0.83;0.83;;;;;;;26.53;31.22;97152.31;4854776;29;20704;-63
2022/06/15 11:49:44;;;;;;;2.03;0.90;;;;;;;26.58;31.56;97147.59;4816179;29;20242;-64
2022/06/15 11:52:24;;;;;;;1.50;1.13;;;;;;;26.71;31.62;97142.59;4853565;29;20270;-63
2022/06/15 11:55:04;;;;;;;0.70;0.70;;;;;;;26.86;30.09;97147.84;4835018;29;20323;-65
2022/06/15 11:57:39;;;;;;;0.80;0.80;;;;;;;26.95;29.75;97150.72;4854034;29;20677;-64
2022/06/15 12:00:20;;;;;;;0.77;0.53;;;;;;;27.07;29.38;97147.56;4857773;29;20221;-63
2022/06/15 12:03:12;;;;;;;1.00;0.80;;;;;;;26.96;30.33;97146.09;4848714;29;20978;-64
2022/06/15 12:05:44;;;;;;;1.20;1.10;;;;;;;27.05;28.99;97138.09;4822184;29;20213;-64
2022/06/15 12:08:23;;;;;;;2.50;0.67;;;;;;;27.05;27.31;97138.09;4856653;29;20322;-62
2022/06/15 12:10:53;;;;;;;1.23;0.97;;;;;;;27.26;29.76;97139.41;4838661;29;20267;-64